sensor_id;sensor_type;location;lat;lon;timestamp;P1;durP1;ratioP1;P2;durP2;ratioP2
35225;SDS011;21813;49.686;21.766;2023-05-01T00:01:11;19.10;;;10.45;;
35225;SDS011;21813;49.686;21.766;2023-05-01T00:03:37;17.02;;;10.07;;
35225;SDS011;21813;49.686;21.766;2023-05-01T00:06:04;18.00;;;10.82;;
35225;SDS011;21813;49.686;21.766;2023-05-01T00:08:30;24.80;;;10.65;;
35225;SDS011;21813;49.686;21.766;2023-05-01T00:11:01;19.35;;;9.48;;
35225;SDS011;21813;49.686;21.766;2023-05-01T00:13:30;16.75;;;9.93;;
35225;SDS011;21813;49.686;21.766;2023-05-01T00:15:58;18.30;;;10.70;;
35225;SDS011;21813;49.686;21.766;2023-05-01T00:18:24;19.45;;;11.88;;
35225;SDS011;21813;49.686;21.766;2023-05-01T00:20:50;20.23;;;10.07;;
35225;SDS011;21813;49.686;21.766;2023-05-01T00:23:16;24.70;;;11.55;;
35225;SDS011;21813;49.686;21.766;2023-05-01T00:25:43;18.75;;;11.57;;
35225;SDS011;21813;49.686;21.766;2023-05-01T00:28:09;23.55;;;11.43;;
35225;SDS011;21813;49.686;21.766;2023-05-01T00:30:37;22.08;;;10.77;;
35225;SDS011;21813;49.686;21.766;2023-05-01T00:33:02;22.55;;;10.98;;
35225;SDS011;21813;49.686;21.766;2023-05-01T00:35:29;18.52;;;10.75;;
35225;SDS011;21813;49.686;21.766;2023-05-01T00:37:55;21.20;;;11.02;;
35225;SDS011;21813;49.686;21.766;2023-05-01T00:40:21;18.45;;;10.40;;
35225;SDS011;21813;49.686;21.766;2023-05-01T00:42:47;19.67;;;10.80;;
35225;SDS011;21813;49.686;21.766;2023-05-01T00:45:12;20.40;;;11.10;;
35225;SDS011;21813;49.686;21.766;2023-05-01T00:47:38;21.75;;;11.50;;
35225;SDS011;21813;49.686;21.766;2023-05-01T00:50:05;21.30;;;11.73;;
35225;SDS011;21813;49.686;21.766;2023-05-01T00:52:32;19.02;;;10.93;;
35225;SDS011;21813;49.686;21.766;2023-05-01T00:54:59;19.88;;;10.55;;
35225;SDS011;21813;49.686;21.766;2023-05-01T00:57:24;21.17;;;11.05;;
35225;SDS011;21813;49.686;21.766;2023-05-01T00:59:52;21.90;;;10.43;;
35225;SDS011;21813;49.686;21.766;2023-05-01T01:02:17;26.73;;;11.00;;
35225;SDS011;21813;49.686;21.766;2023-05-01T01:04:44;16.30;;;9.80;;
35225;SDS011;21813;49.686;21.766;2023-05-01T01:07:17;21.15;;;11.32;;
35225;SDS011;21813;49.686;21.766;2023-05-01T01:15:29;17.63;;;9.38;;
35225;SDS011;21813;49.686;21.766;2023-05-01T01:20:31;15.80;;;9.60;;
35225;SDS011;21813;49.686;21.766;2023-05-01T01:23:02;16.95;;;9.65;;
35225;SDS011;21813;49.686;21.766;2023-05-01T01:34:18;15.52;;;9.00;;
35225;SDS011;21813;49.686;21.766;2023-05-01T01:37:04;18.27;;;10.05;;
35225;SDS011;21813;49.686;21.766;2023-05-01T01:42:12;18.80;;;9.95;;
35225;SDS011;21813;49.686;21.766;2023-05-01T01:44:46;18.52;;;9.18;;
35225;SDS011;21813;49.686;21.766;2023-05-01T01:47:16;18.17;;;8.82;;
35225;SDS011;21813;49.686;21.766;2023-05-01T01:49:45;13.10;;;9.52;;
35225;SDS011;21813;49.686;21.766;2023-05-01T01:52:15;18.88;;;10.07;;
35225;SDS011;21813;49.686;21.766;2023-05-01T01:54:49;16.20;;;9.20;;
35225;SDS011;21813;49.686;21.766;2023-05-01T01:57:18;16.90;;;8.90;;
35225;SDS011;21813;49.686;21.766;2023-05-01T01:59:47;18.90;;;8.90;;
35225;SDS011;21813;49.686;21.766;2023-05-01T02:02:17;19.92;;;9.38;;
35225;SDS011;21813;49.686;21.766;2023-05-01T02:04:45;24.30;;;9.90;;
35225;SDS011;21813;49.686;21.766;2023-05-01T02:07:13;15.35;;;8.95;;
35225;SDS011;21813;49.686;21.766;2023-05-01T02:09:41;13.93;;;8.20;;
35225;SDS011;21813;49.686;21.766;2023-05-01T02:12:09;18.30;;;9.45;;
35225;SDS011;21813;49.686;21.766;2023-05-01T02:14:36;15.88;;;8.20;;
35225;SDS011;21813;49.686;21.766;2023-05-01T02:17:03;14.18;;;8.13;;
35225;SDS011;21813;49.686;21.766;2023-05-01T02:19:30;13.55;;;8.38;;
35225;SDS011;21813;49.686;21.766;2023-05-01T02:21:58;17.13;;;8.90;;
35225;SDS011;21813;49.686;21.766;2023-05-01T02:24:26;13.50;;;9.13;;
35225;SDS011;21813;49.686;21.766;2023-05-01T02:26:55;16.60;;;9.27;;
35225;SDS011;21813;49.686;21.766;2023-05-01T02:29:24;14.77;;;8.35;;
35225;SDS011;21813;49.686;21.766;2023-05-01T02:31:51;19.00;;;8.55;;
35225;SDS011;21813;49.686;21.766;2023-05-01T02:34:17;15.30;;;9.20;;
35225;SDS011;21813;49.686;21.766;2023-05-01T02:36:43;21.40;;;8.80;;
35225;SDS011;21813;49.686;21.766;2023-05-01T02:39:08;16.08;;;8.40;;
35225;SDS011;21813;49.686;21.766;2023-05-01T02:41:35;14.63;;;9.68;;
35225;SDS011;21813;49.686;21.766;2023-05-01T02:44:03;18.38;;;9.30;;
35225;SDS011;21813;49.686;21.766;2023-05-01T02:46:32;17.25;;;10.30;;
35225;SDS011;21813;49.686;21.766;2023-05-01T02:49:01;19.70;;;9.43;;
35225;SDS011;21813;49.686;21.766;2023-05-01T02:51:30;17.73;;;8.15;;
35225;SDS011;21813;49.686;21.766;2023-05-01T02:53:57;11.73;;;8.73;;
35225;SDS011;21813;49.686;21.766;2023-05-01T02:56:24;15.48;;;8.48;;
35225;SDS011;21813;49.686;21.766;2023-05-01T02:58:53;14.07;;;9.45;;
35225;SDS011;21813;49.686;21.766;2023-05-01T03:01:20;22.15;;;12.07;;
35225;SDS011;21813;49.686;21.766;2023-05-01T03:03:46;23.40;;;12.20;;
35225;SDS011;21813;49.686;21.766;2023-05-01T03:06:12;17.20;;;11.57;;
35225;SDS011;21813;49.686;21.766;2023-05-01T03:08:40;18.02;;;10.98;;
35225;SDS011;21813;49.686;21.766;2023-05-01T03:11:06;18.63;;;10.85;;
35225;SDS011;21813;49.686;21.766;2023-05-01T03:13:32;18.38;;;11.15;;
35225;SDS011;21813;49.686;21.766;2023-05-01T03:15:59;20.10;;;11.43;;
35225;SDS011;21813;49.686;21.766;2023-05-01T03:18:24;21.63;;;12.18;;
35225;SDS011;21813;49.686;21.766;2023-05-01T03:20:54;21.70;;;12.95;;
35225;SDS011;21813;49.686;21.766;2023-05-01T03:23:23;21.13;;;14.13;;
35225;SDS011;21813;49.686;21.766;2023-05-01T03:25:49;24.42;;;12.80;;
35225;SDS011;21813;49.686;21.766;2023-05-01T03:28:15;28.77;;;13.55;;
35225;SDS011;21813;49.686;21.766;2023-05-01T03:30:42;29.65;;;14.45;;
35225;SDS011;21813;49.686;21.766;2023-05-01T03:33:08;21.85;;;13.38;;
35225;SDS011;21813;49.686;21.766;2023-05-01T03:35:34;24.10;;;13.27;;
35225;SDS011;21813;49.686;21.766;2023-05-01T03:38:00;25.65;;;13.88;;
35225;SDS011;21813;49.686;21.766;2023-05-01T03:40:26;23.58;;;14.07;;
35225;SDS011;21813;49.686;21.766;2023-05-01T03:42:51;27.45;;;14.40;;
35225;SDS011;21813;49.686;21.766;2023-05-01T03:45:17;26.58;;;13.60;;
35225;SDS011;21813;49.686;21.766;2023-05-01T03:47:42;21.40;;;13.13;;
35225;SDS011;21813;49.686;21.766;2023-05-01T03:50:09;22.38;;;13.27;;
35225;SDS011;21813;49.686;21.766;2023-05-01T03:52:35;19.13;;;12.73;;
35225;SDS011;21813;49.686;21.766;2023-05-01T03:55:01;21.35;;;11.95;;
35225;SDS011;21813;49.686;21.766;2023-05-01T03:57:27;20.55;;;12.18;;
35225;SDS011;21813;49.686;21.766;2023-05-01T03:59:53;19.35;;;12.38;;
35225;SDS011;21813;49.686;21.766;2023-05-01T04:02:19;23.30;;;13.35;;
35225;SDS011;21813;49.686;21.766;2023-05-01T04:04:45;24.70;;;14.23;;
35225;SDS011;21813;49.686;21.766;2023-05-01T04:07:12;23.80;;;13.20;;
35225;SDS011;21813;49.686;21.766;2023-05-01T04:09:38;22.15;;;13.80;;
35225;SDS011;21813;49.686;21.766;2023-05-01T04:12:05;24.13;;;14.80;;
35225;SDS011;21813;49.686;21.766;2023-05-01T04:14:31;23.83;;;14.07;;
35225;SDS011;21813;49.686;21.766;2023-05-01T04:16:57;28.65;;;14.95;;
35225;SDS011;21813;49.686;21.766;2023-05-01T04:19:23;23.52;;;14.00;;
35225;SDS011;21813;49.686;21.766;2023-05-01T04:21:50;23.58;;;13.85;;
35225;SDS011;21813;49.686;21.766;2023-05-01T04:24:16;24.55;;;14.63;;
35225;SDS011;21813;49.686;21.766;2023-05-01T04:26:42;23.25;;;13.18;;
35225;SDS011;21813;49.686;21.766;2023-05-01T04:29:08;23.52;;;13.75;;
35225;SDS011;21813;49.686;21.766;2023-05-01T04:31:33;25.45;;;13.27;;
35225;SDS011;21813;49.686;21.766;2023-05-01T04:33:59;22.98;;;13.02;;
35225;SDS011;21813;49.686;21.766;2023-05-01T04:36:25;22.65;;;12.38;;
35225;SDS011;21813;49.686;21.766;2023-05-01T04:38:52;21.25;;;12.90;;
35225;SDS011;21813;49.686;21.766;2023-05-01T04:41:17;22.45;;;13.10;;
35225;SDS011;21813;49.686;21.766;2023-05-01T04:43:43;24.77;;;13.82;;
35225;SDS011;21813;49.686;21.766;2023-05-01T04:46:09;23.48;;;12.82;;
35225;SDS011;21813;49.686;21.766;2023-05-01T04:48:35;22.73;;;13.90;;
35225;SDS011;21813;49.686;21.766;2023-05-01T04:51:00;19.75;;;12.20;;
35225;SDS011;21813;49.686;21.766;2023-05-01T04:53:28;19.90;;;11.73;;
35225;SDS011;21813;49.686;21.766;2023-05-01T04:55:54;21.33;;;12.15;;
35225;SDS011;21813;49.686;21.766;2023-05-01T04:58:20;19.92;;;12.70;;
35225;SDS011;21813;49.686;21.766;2023-05-01T05:00:46;23.40;;;13.07;;
35225;SDS011;21813;49.686;21.766;2023-05-01T05:03:13;22.10;;;13.48;;
35225;SDS011;21813;49.686;21.766;2023-05-01T05:05:38;25.02;;;13.77;;
35225;SDS011;21813;49.686;21.766;2023-05-01T05:08:04;22.95;;;13.73;;
35225;SDS011;21813;49.686;21.766;2023-05-01T05:10:30;25.27;;;14.45;;
35225;SDS011;21813;49.686;21.766;2023-05-01T05:12:56;27.10;;;13.98;;
35225;SDS011;21813;49.686;21.766;2023-05-01T05:15:22;25.75;;;13.90;;
35225;SDS011;21813;49.686;21.766;2023-05-01T05:17:47;22.30;;;12.70;;
35225;SDS011;21813;49.686;21.766;2023-05-01T05:20:13;25.55;;;13.20;;
35225;SDS011;21813;49.686;21.766;2023-05-01T05:22:39;21.02;;;12.25;;
35225;SDS011;21813;49.686;21.766;2023-05-01T05:25:05;24.70;;;12.55;;
35225;SDS011;21813;49.686;21.766;2023-05-01T05:27:31;20.77;;;12.65;;
35225;SDS011;21813;49.686;21.766;2023-05-01T05:30:05;23.83;;;12.40;;
35225;SDS011;21813;49.686;21.766;2023-05-01T05:32:33;19.80;;;11.20;;
35225;SDS011;21813;49.686;21.766;2023-05-01T05:34:59;22.02;;;12.05;;
35225;SDS011;21813;49.686;21.766;2023-05-01T05:37:25;17.10;;;11.25;;
35225;SDS011;21813;49.686;21.766;2023-05-01T05:39:51;18.00;;;10.27;;
35225;SDS011;21813;49.686;21.766;2023-05-01T05:42:23;19.52;;;10.35;;
35225;SDS011;21813;49.686;21.766;2023-05-01T05:44:48;20.45;;;11.43;;
35225;SDS011;21813;49.686;21.766;2023-05-01T05:47:15;20.85;;;10.50;;
35225;SDS011;21813;49.686;21.766;2023-05-01T05:49:40;16.92;;;10.18;;
35225;SDS011;21813;49.686;21.766;2023-05-01T05:52:06;21.27;;;10.93;;
35225;SDS011;21813;49.686;21.766;2023-05-01T05:54:32;19.40;;;10.88;;
35225;SDS011;21813;49.686;21.766;2023-05-01T05:56:57;16.25;;;10.52;;
35225;SDS011;21813;49.686;21.766;2023-05-01T05:59:23;16.95;;;10.63;;
35225;SDS011;21813;49.686;21.766;2023-05-01T06:01:49;17.20;;;9.93;;
35225;SDS011;21813;49.686;21.766;2023-05-01T06:04:14;21.73;;;10.15;;
35225;SDS011;21813;49.686;21.766;2023-05-01T06:06:41;20.35;;;10.60;;
35225;SDS011;21813;49.686;21.766;2023-05-01T06:09:06;16.90;;;9.35;;
35225;SDS011;21813;49.686;21.766;2023-05-01T06:11:33;18.02;;;9.75;;
35225;SDS011;21813;49.686;21.766;2023-05-01T06:13:58;20.30;;;11.70;;
35225;SDS011;21813;49.686;21.766;2023-05-01T06:16:27;18.50;;;11.38;;
35225;SDS011;21813;49.686;21.766;2023-05-01T06:18:54;16.42;;;9.85;;
35225;SDS011;21813;49.686;21.766;2023-05-01T06:21:22;14.07;;;9.02;;
35225;SDS011;21813;49.686;21.766;2023-05-01T06:23:47;14.57;;;9.65;;
35225;SDS011;21813;49.686;21.766;2023-05-01T06:26:14;26.60;;;9.18;;
35225;SDS011;21813;49.686;21.766;2023-05-01T06:28:40;12.40;;;7.15;;
35225;SDS011;21813;49.686;21.766;2023-05-01T06:31:06;15.73;;;8.20;;
35225;SDS011;21813;49.686;21.766;2023-05-01T06:44:38;14.00;;;6.97;;
35225;SDS011;21813;49.686;21.766;2023-05-01T06:47:04;16.38;;;7.13;;
35225;SDS011;21813;49.686;21.766;2023-05-01T06:49:30;15.85;;;6.70;;
35225;SDS011;21813;49.686;21.766;2023-05-01T06:51:56;14.27;;;6.53;;
35225;SDS011;21813;49.686;21.766;2023-05-01T06:54:22;12.30;;;6.45;;
35225;SDS011;21813;49.686;21.766;2023-05-01T06:56:50;12.75;;;6.38;;
35225;SDS011;21813;49.686;21.766;2023-05-01T06:59:15;10.50;;;5.75;;
35225;SDS011;21813;49.686;21.766;2023-05-01T07:01:42;9.27;;;5.65;;
35225;SDS011;21813;49.686;21.766;2023-05-01T07:04:07;7.45;;;4.82;;
35225;SDS011;21813;49.686;21.766;2023-05-01T07:06:35;10.80;;;6.00;;
35225;SDS011;21813;49.686;21.766;2023-05-01T07:09:01;14.45;;;6.00;;
35225;SDS011;21813;49.686;21.766;2023-05-01T07:11:40;9.65;;;5.32;;
35225;SDS011;21813;49.686;21.766;2023-05-01T07:14:07;10.02;;;4.90;;
35225;SDS011;21813;49.686;21.766;2023-05-01T07:16:34;9.50;;;4.75;;
35225;SDS011;21813;49.686;21.766;2023-05-01T07:19:00;10.95;;;5.22;;
35225;SDS011;21813;49.686;21.766;2023-05-01T07:21:27;6.10;;;4.32;;
35225;SDS011;21813;49.686;21.766;2023-05-01T07:23:53;7.22;;;4.63;;
35225;SDS011;21813;49.686;21.766;2023-05-01T07:26:19;6.70;;;3.55;;
35225;SDS011;21813;49.686;21.766;2023-05-01T07:28:45;9.05;;;4.40;;
35225;SDS011;21813;49.686;21.766;2023-05-01T07:31:12;15.32;;;4.85;;
35225;SDS011;21813;49.686;21.766;2023-05-01T07:33:37;6.70;;;3.78;;
35225;SDS011;21813;49.686;21.766;2023-05-01T07:36:03;11.27;;;4.85;;
35225;SDS011;21813;49.686;21.766;2023-05-01T07:38:29;8.80;;;4.90;;
35225;SDS011;21813;49.686;21.766;2023-05-01T07:40:57;7.05;;;4.35;;
35225;SDS011;21813;49.686;21.766;2023-05-01T07:43:22;8.38;;;4.18;;
35225;SDS011;21813;49.686;21.766;2023-05-01T07:45:55;7.43;;;3.60;;
35225;SDS011;21813;49.686;21.766;2023-05-01T07:48:22;9.48;;;3.95;;
35225;SDS011;21813;49.686;21.766;2023-05-01T07:50:49;5.05;;;3.50;;
35225;SDS011;21813;49.686;21.766;2023-05-01T07:53:15;6.43;;;3.03;;
35225;SDS011;21813;49.686;21.766;2023-05-01T07:55:42;5.60;;;3.08;;
35225;SDS011;21813;49.686;21.766;2023-05-01T07:58:11;9.50;;;3.50;;
35225;SDS011;21813;49.686;21.766;2023-05-01T08:00:38;4.30;;;2.80;;
35225;SDS011;21813;49.686;21.766;2023-05-01T08:03:04;10.35;;;3.15;;
35225;SDS011;21813;49.686;21.766;2023-05-01T08:05:30;5.97;;;2.45;;
35225;SDS011;21813;49.686;21.766;2023-05-01T08:07:57;7.30;;;3.03;;
35225;SDS011;21813;49.686;21.766;2023-05-01T08:10:23;8.85;;;3.08;;
35225;SDS011;21813;49.686;21.766;2023-05-01T08:16:01;8.30;;;3.63;;
35225;SDS011;21813;49.686;21.766;2023-05-01T08:18:28;5.50;;;2.95;;
35225;SDS011;21813;49.686;21.766;2023-05-01T08:20:55;3.85;;;3.22;;
35225;SDS011;21813;49.686;21.766;2023-05-01T08:26:07;5.07;;;3.20;;
35225;SDS011;21813;49.686;21.766;2023-05-01T08:28:35;5.05;;;3.10;;
35225;SDS011;21813;49.686;21.766;2023-05-01T08:31:00;8.40;;;3.55;;
35225;SDS011;21813;49.686;21.766;2023-05-01T08:33:28;7.35;;;3.90;;
35225;SDS011;21813;49.686;21.766;2023-05-01T08:35:54;7.88;;;3.22;;
35225;SDS011;21813;49.686;21.766;2023-05-01T08:38:51;5.60;;;3.27;;
35225;SDS011;21813;49.686;21.766;2023-05-01T08:41:19;14.88;;;4.28;;
35225;SDS011;21813;49.686;21.766;2023-05-01T08:43:46;5.22;;;3.60;;
35225;SDS011;21813;49.686;21.766;2023-05-01T08:46:14;6.28;;;3.08;;
35225;SDS011;21813;49.686;21.766;2023-05-01T08:51:22;10.45;;;4.22;;
35225;SDS011;21813;49.686;21.766;2023-05-01T08:53:50;7.05;;;3.05;;
35225;SDS011;21813;49.686;21.766;2023-05-01T08:56:18;6.85;;;2.10;;
35225;SDS011;21813;49.686;21.766;2023-05-01T08:59:03;5.20;;;2.90;;
35225;SDS011;21813;49.686;21.766;2023-05-01T09:01:30;4.85;;;2.70;;
35225;SDS011;21813;49.686;21.766;2023-05-01T09:04:00;8.18;;;2.80;;
35225;SDS011;21813;49.686;21.766;2023-05-01T09:06:33;7.65;;;2.45;;
35225;SDS011;21813;49.686;21.766;2023-05-01T09:09:00;5.70;;;3.05;;
35225;SDS011;21813;49.686;21.766;2023-05-01T09:11:28;5.00;;;2.40;;
35225;SDS011;21813;49.686;21.766;2023-05-01T09:13:55;4.85;;;2.17;;
35225;SDS011;21813;49.686;21.766;2023-05-01T09:16:34;5.80;;;2.13;;
35225;SDS011;21813;49.686;21.766;2023-05-01T09:19:00;9.70;;;3.13;;
35225;SDS011;21813;49.686;21.766;2023-05-01T09:21:29;3.75;;;2.38;;
35225;SDS011;21813;49.686;21.766;2023-05-01T09:23:56;5.95;;;2.50;;
35225;SDS011;21813;49.686;21.766;2023-05-01T09:26:24;5.07;;;2.85;;
35225;SDS011;21813;49.686;21.766;2023-05-01T09:28:51;5.15;;;2.35;;
35225;SDS011;21813;49.686;21.766;2023-05-01T09:33:53;6.38;;;2.55;;
35225;SDS011;21813;49.686;21.766;2023-05-01T09:38:50;4.22;;;2.40;;
35225;SDS011;21813;49.686;21.766;2023-05-01T09:41:17;5.55;;;2.10;;
35225;SDS011;21813;49.686;21.766;2023-05-01T09:43:48;7.40;;;2.22;;
35225;SDS011;21813;49.686;21.766;2023-05-01T09:46:17;6.75;;;2.58;;
35225;SDS011;21813;49.686;21.766;2023-05-01T09:48:50;5.07;;;2.90;;
35225;SDS011;21813;49.686;21.766;2023-05-01T09:51:21;5.28;;;2.60;;
35225;SDS011;21813;49.686;21.766;2023-05-01T09:54:01;6.38;;;2.40;;
35225;SDS011;21813;49.686;21.766;2023-05-01T09:56:30;6.53;;;1.80;;
35225;SDS011;21813;49.686;21.766;2023-05-01T09:59:13;5.90;;;1.85;;
35225;SDS011;21813;49.686;21.766;2023-05-01T10:01:45;2.33;;;1.90;;
35225;SDS011;21813;49.686;21.766;2023-05-01T10:04:16;3.30;;;2.17;;
35225;SDS011;21813;49.686;21.766;2023-05-01T10:06:43;3.90;;;2.45;;
35225;SDS011;21813;49.686;21.766;2023-05-01T10:09:09;9.05;;;2.60;;
35225;SDS011;21813;49.686;21.766;2023-05-01T10:11:49;4.65;;;2.38;;
35225;SDS011;21813;49.686;21.766;2023-05-01T10:14:17;3.13;;;2.00;;
35225;SDS011;21813;49.686;21.766;2023-05-01T10:16:45;5.32;;;2.28;;
35225;SDS011;21813;49.686;21.766;2023-05-01T10:19:11;4.97;;;2.20;;
35225;SDS011;21813;49.686;21.766;2023-05-01T10:21:37;4.88;;;2.28;;
35225;SDS011;21813;49.686;21.766;2023-05-01T10:24:03;9.07;;;2.55;;
35225;SDS011;21813;49.686;21.766;2023-05-01T10:26:33;6.00;;;2.72;;
35225;SDS011;21813;49.686;21.766;2023-05-01T10:28:59;4.13;;;2.17;;
35225;SDS011;21813;49.686;21.766;2023-05-01T10:31:26;2.58;;;2.25;;
35225;SDS011;21813;49.686;21.766;2023-05-01T10:33:53;6.68;;;2.15;;
35225;SDS011;21813;49.686;21.766;2023-05-01T10:38:57;4.18;;;2.10;;
35225;SDS011;21813;49.686;21.766;2023-05-01T10:44:28;5.55;;;2.33;;
35225;SDS011;21813;49.686;21.766;2023-05-01T10:46:55;10.48;;;2.38;;
35225;SDS011;21813;49.686;21.766;2023-05-01T10:49:21;5.88;;;2.45;;
35225;SDS011;21813;49.686;21.766;2023-05-01T10:51:59;4.38;;;2.30;;
35225;SDS011;21813;49.686;21.766;2023-05-01T10:54:29;4.40;;;2.28;;
35225;SDS011;21813;49.686;21.766;2023-05-01T10:59:25;5.05;;;2.38;;
35225;SDS011;21813;49.686;21.766;2023-05-01T11:01:53;5.78;;;2.50;;
35225;SDS011;21813;49.686;21.766;2023-05-01T11:09:37;3.53;;;2.30;;
35225;SDS011;21813;49.686;21.766;2023-05-01T11:12:05;8.20;;;2.17;;
35225;SDS011;21813;49.686;21.766;2023-05-01T11:22:33;4.32;;;2.42;;
35225;SDS011;21813;49.686;21.766;2023-05-01T11:25:01;7.72;;;1.88;;
35225;SDS011;21813;49.686;21.766;2023-05-01T11:27:30;4.13;;;2.08;;
35225;SDS011;21813;49.686;21.766;2023-05-01T11:29:59;6.45;;;1.67;;
35225;SDS011;21813;49.686;21.766;2023-05-01T11:32:28;5.63;;;2.05;;
35225;SDS011;21813;49.686;21.766;2023-05-01T11:34:56;3.42;;;1.80;;
35225;SDS011;21813;49.686;21.766;2023-05-01T11:37:42;4.20;;;1.48;;
35225;SDS011;21813;49.686;21.766;2023-05-01T11:40:25;6.13;;;1.77;;
35225;SDS011;21813;49.686;21.766;2023-05-01T11:43:04;6.03;;;1.95;;
35225;SDS011;21813;49.686;21.766;2023-05-01T11:45:32;13.75;;;3.40;;
35225;SDS011;21813;49.686;21.766;2023-05-01T11:47:59;4.15;;;1.92;;
35225;SDS011;21813;49.686;21.766;2023-05-01T11:50:33;4.97;;;1.90;;
35225;SDS011;21813;49.686;21.766;2023-05-01T11:53:03;4.57;;;2.00;;
35225;SDS011;21813;49.686;21.766;2023-05-01T11:55:36;5.20;;;2.40;;
35225;SDS011;21813;49.686;21.766;2023-05-01T11:58:04;3.50;;;2.22;;
35225;SDS011;21813;49.686;21.766;2023-05-01T12:00:37;6.35;;;2.42;;
35225;SDS011;21813;49.686;21.766;2023-05-01T12:03:08;6.07;;;2.20;;
35225;SDS011;21813;49.686;21.766;2023-05-01T12:05:38;6.82;;;1.75;;
35225;SDS011;21813;49.686;21.766;2023-05-01T12:08:17;3.80;;;1.30;;
35225;SDS011;21813;49.686;21.766;2023-05-01T12:10:54;3.47;;;1.60;;
35225;SDS011;21813;49.686;21.766;2023-05-01T12:13:21;7.32;;;1.60;;
35225;SDS011;21813;49.686;21.766;2023-05-01T12:15:49;3.28;;;1.80;;
35225;SDS011;21813;49.686;21.766;2023-05-01T12:18:18;3.92;;;1.63;;
35225;SDS011;21813;49.686;21.766;2023-05-01T12:20:49;4.57;;;1.85;;
35225;SDS011;21813;49.686;21.766;2023-05-01T12:23:17;2.95;;;1.95;;
35225;SDS011;21813;49.686;21.766;2023-05-01T12:25:44;3.33;;;1.90;;
35225;SDS011;21813;49.686;21.766;2023-05-01T12:28:16;6.57;;;1.80;;
35225;SDS011;21813;49.686;21.766;2023-05-01T12:30:44;6.68;;;1.80;;
35225;SDS011;21813;49.686;21.766;2023-05-01T12:33:25;3.70;;;1.58;;
35225;SDS011;21813;49.686;21.766;2023-05-01T12:35:50;3.10;;;1.70;;
35225;SDS011;21813;49.686;21.766;2023-05-01T12:38:18;4.00;;;1.60;;
35225;SDS011;21813;49.686;21.766;2023-05-01T12:40:55;5.28;;;1.70;;
35225;SDS011;21813;49.686;21.766;2023-05-01T12:43:29;3.60;;;2.00;;
35225;SDS011;21813;49.686;21.766;2023-05-01T12:45:56;4.15;;;1.88;;
35225;SDS011;21813;49.686;21.766;2023-05-01T12:48:22;3.00;;;2.28;;
35225;SDS011;21813;49.686;21.766;2023-05-01T12:50:48;2.72;;;1.50;;
35225;SDS011;21813;49.686;21.766;2023-05-01T12:53:22;4.10;;;1.67;;
35225;SDS011;21813;49.686;21.766;2023-05-01T12:55:51;3.83;;;1.60;;
35225;SDS011;21813;49.686;21.766;2023-05-01T12:58:19;3.78;;;1.67;;
35225;SDS011;21813;49.686;21.766;2023-05-01T13:00:46;5.72;;;1.30;;
35225;SDS011;21813;49.686;21.766;2023-05-01T13:03:24;3.97;;;1.70;;
35225;SDS011;21813;49.686;21.766;2023-05-01T13:05:55;4.72;;;1.42;;
35225;SDS011;21813;49.686;21.766;2023-05-01T13:11:00;3.42;;;1.70;;
35225;SDS011;21813;49.686;21.766;2023-05-01T13:13:34;4.18;;;2.25;;
35225;SDS011;21813;49.686;21.766;2023-05-01T13:16:02;4.88;;;1.92;;
35225;SDS011;21813;49.686;21.766;2023-05-01T13:18:44;5.10;;;2.08;;
35225;SDS011;21813;49.686;21.766;2023-05-01T13:21:19;1.98;;;1.38;;
35225;SDS011;21813;49.686;21.766;2023-05-01T13:23:53;4.22;;;1.75;;
35225;SDS011;21813;49.686;21.766;2023-05-01T13:26:29;6.95;;;1.50;;
35225;SDS011;21813;49.686;21.766;2023-05-01T13:28:58;4.95;;;1.30;;
35225;SDS011;21813;49.686;21.766;2023-05-01T13:31:26;10.98;;;1.55;;
35225;SDS011;21813;49.686;21.766;2023-05-01T13:33:54;3.35;;;1.15;;
35225;SDS011;21813;49.686;21.766;2023-05-01T13:36:21;3.53;;;1.65;;
35225;SDS011;21813;49.686;21.766;2023-05-01T13:38:48;3.50;;;1.83;;
35225;SDS011;21813;49.686;21.766;2023-05-01T13:41:20;3.97;;;1.33;;
35225;SDS011;21813;49.686;21.766;2023-05-01T13:43:50;5.40;;;1.63;;
35225;SDS011;21813;49.686;21.766;2023-05-01T13:46:18;3.15;;;1.67;;
35225;SDS011;21813;49.686;21.766;2023-05-01T13:48:46;5.97;;;1.77;;
35225;SDS011;21813;49.686;21.766;2023-05-01T13:51:12;4.47;;;1.27;;
35225;SDS011;21813;49.686;21.766;2023-05-01T13:53:40;3.97;;;1.45;;
35225;SDS011;21813;49.686;21.766;2023-05-01T13:56:07;5.63;;;1.60;;
35225;SDS011;21813;49.686;21.766;2023-05-01T13:58:35;4.55;;;1.77;;
35225;SDS011;21813;49.686;21.766;2023-05-01T14:01:01;2.63;;;1.50;;
35225;SDS011;21813;49.686;21.766;2023-05-01T14:03:30;3.15;;;1.48;;
35225;SDS011;21813;49.686;21.766;2023-05-01T14:06:04;3.72;;;1.35;;
35225;SDS011;21813;49.686;21.766;2023-05-01T14:08:31;5.80;;;1.38;;
35225;SDS011;21813;49.686;21.766;2023-05-01T14:10:57;5.50;;;1.63;;
35225;SDS011;21813;49.686;21.766;2023-05-01T14:13:23;1.70;;;1.48;;
35225;SDS011;21813;49.686;21.766;2023-05-01T14:15:51;4.03;;;1.65;;
35225;SDS011;21813;49.686;21.766;2023-05-01T14:18:17;3.78;;;1.85;;
35225;SDS011;21813;49.686;21.766;2023-05-01T14:20:45;5.20;;;1.95;;
35225;SDS011;21813;49.686;21.766;2023-05-01T14:23:15;3.80;;;1.75;;
35225;SDS011;21813;49.686;21.766;2023-05-01T14:25:43;4.70;;;1.30;;
35225;SDS011;21813;49.686;21.766;2023-05-01T14:28:10;5.72;;;1.45;;
35225;SDS011;21813;49.686;21.766;2023-05-01T14:30:39;4.65;;;1.83;;
35225;SDS011;21813;49.686;21.766;2023-05-01T14:33:07;6.10;;;1.50;;
35225;SDS011;21813;49.686;21.766;2023-05-01T14:35:34;2.92;;;1.48;;
35225;SDS011;21813;49.686;21.766;2023-05-01T14:40:38;3.55;;;1.67;;
35225;SDS011;21813;49.686;21.766;2023-05-01T14:43:05;5.25;;;1.80;;
35225;SDS011;21813;49.686;21.766;2023-05-01T14:45:31;2.55;;;1.65;;
35225;SDS011;21813;49.686;21.766;2023-05-01T14:48:00;2.33;;;1.13;;
35225;SDS011;21813;49.686;21.766;2023-05-01T14:50:26;4.97;;;1.88;;
35225;SDS011;21813;49.686;21.766;2023-05-01T14:52:53;4.30;;;1.75;;
35225;SDS011;21813;49.686;21.766;2023-05-01T14:55:30;2.00;;;1.52;;
35225;SDS011;21813;49.686;21.766;2023-05-01T14:58:00;3.10;;;1.52;;
35225;SDS011;21813;49.686;21.766;2023-05-01T15:00:26;3.20;;;1.48;;
35225;SDS011;21813;49.686;21.766;2023-05-01T15:03:18;7.20;;;2.83;;
35225;SDS011;21813;49.686;21.766;2023-05-01T15:05:44;7.10;;;1.80;;
35225;SDS011;21813;49.686;21.766;2023-05-01T15:08:11;4.00;;;1.50;;
35225;SDS011;21813;49.686;21.766;2023-05-01T15:10:36;3.92;;;1.50;;
35225;SDS011;21813;49.686;21.766;2023-05-01T15:13:05;3.90;;;1.70;;
35225;SDS011;21813;49.686;21.766;2023-05-01T15:15:30;8.52;;;1.95;;
35225;SDS011;21813;49.686;21.766;2023-05-01T15:17:57;2.15;;;1.60;;
35225;SDS011;21813;49.686;21.766;2023-05-01T15:20:22;4.53;;;1.80;;
35225;SDS011;21813;49.686;21.766;2023-05-01T15:22:49;4.25;;;2.10;;
35225;SDS011;21813;49.686;21.766;2023-05-01T15:25:38;3.88;;;1.80;;
35225;SDS011;21813;49.686;21.766;2023-05-01T15:28:04;2.50;;;1.50;;
35225;SDS011;21813;49.686;21.766;2023-05-01T15:30:30;4.10;;;1.65;;
35225;SDS011;21813;49.686;21.766;2023-05-01T15:32:57;7.25;;;2.15;;
35225;SDS011;21813;49.686;21.766;2023-05-01T15:35:23;2.45;;;1.70;;
35225;SDS011;21813;49.686;21.766;2023-05-01T15:37:51;3.42;;;2.08;;
35225;SDS011;21813;49.686;21.766;2023-05-01T15:40:17;3.33;;;1.67;;